Georgia — WDG9270 — position and weather

sailwx.info

Track history (hours):
 
Tides and Currents Weather Stations Pressure Air Temp Water Temp Dewpoint Dewpoint Depression Visibility Wind Speed Wind Dir Waves Ship Positions

Georgia

Owner: savannah bar pilots, inc., savannah, GA. More information available from US FCC via Universal Licensing System and Coast Guard Vessel Documentation Center.

Last reported at 2017-Nov-18 21:01 UTC. Time now 2017-Nov-18 21:27 UTC.
Position N 32°02' W 080°52'.

Length 19 m; draft 1 m.

Type: Pilot. MMSI: 367586130.

Date/timePositionNaut miles runAvg speedWind from/ knotsBaromVisibWave heightAir tempDewpointWater temp
2017-Nov-18 21:01N 32°02' W 080°52'1121.0
2017-Nov-18 20:30N 31°57' W 080°41'1 1.2
2017-Nov-18 20:00N 31°57' W 080°41'816.2
2017-Nov-18 19:30N 32°01' W 080°49'5 9.6
2017-Nov-18 19:00N 32°02' W 080°54'0 0.0
2017-Nov-18 18:30N 32°02' W 080°54'917.6
2017-Nov-18 18:00N 31°58' W 080°45'2 4.0
2017-Nov-18 17:30N 31°58' W 080°43'2 4.5
2017-Nov-18 17:00N 31°57' W 080°40'1123.2
2017-Nov-18 16:30N 32°02' W 080°52'1223.4
2017-Nov-18 16:01N 31°57' W 080°40'0 0.0
2017-Nov-18 15:30N 31°57' W 080°40'815.6
2017-Nov-18 15:00N 32°00' W 080°48'611.0
2017-Nov-18 14:30N 32°02' W 080°54'2 4.0
2017-Nov-18 14:01N 32°02' W 080°52'611.2
2017-Nov-18 13:31N 31°59' W 080°46'611.7
2017-Nov-18 13:00N 32°02' W 080°52'815.8
2017-Nov-18 12:30N 31°58' W 080°44'815.5
2017-Nov-18 12:00N 32°02' W 080°52'1 2.4
2017-Nov-18 11:31N 32°02' W 080°51'3 6.7
2017-Nov-18 11:00N 32°00' W 080°48'611.7
2017-Nov-18 10:30N 32°02' W 080°54'0 0.1
2017-Nov-18 10:00N 32°02' W 080°54'0 0.0
2017-Nov-18 09:30N 32°02' W 080°54'918.8
2017-Nov-18 09:00N 31°58' W 080°44'2 4.8
2017-Nov-18 08:30N 31°59' W 080°47'1 1.3
2017-Nov-18 08:00N 31°59' W 080°46'510.7
2017-Nov-18 07:30N 31°57' W 080°40'3 3.8
2017-Nov-18 06:48N 31°58' W 080°43'415.0
2017-Nov-18 06:31N 31°60' W 080°48'611.9
2017-Nov-18 06:00N 32°02' W 080°54'0 0.0
2017-Nov-18 05:30N 32°02' W 080°54'0 0.0
2017-Nov-18 05:00N 32°02' W 080°54'1118.4
2017-Nov-18 04:25N 31°58' W 080°43'513.1
2017-Nov-18 04:01N 32°00' W 080°48'611.1
2017-Nov-18 03:31N 32°02' W 080°54'0 0.0
2017-Nov-18 03:00N 32°02' W 080°54'0 0.0
2017-Nov-18 02:31N 32°02' W 080°54'611.9
2017-Nov-18 02:00N 32°00' W 080°47'3 5.3
2017-Nov-18 01:29N 31°59' W 080°45'1 1.8
2017-Nov-18 01:00N 31°58' W 080°46'0 0.7
2017-Nov-18 00:30N 31°58' W 080°46'3 5.3
2017-Nov-17 23:52N 31°58' W 080°42'2 5.0
2017-Nov-17 23:29N 31°58' W 080°44'1020.1
2017-Nov-17 23:00N 32°02' W 080°54'0 0.0
2017-Nov-17 22:30N 32°02' W 080°54'0 0.0
2017-Nov-17 22:01N 32°02' W 080°54'2 4.2
2017-Nov-17 21:31N 32°02' W 080°52'914.7
2017-Nov-17 20:54N 31°58' W 080°43'717.9
2017-Nov-17 20:31N 32°02' W 080°49'5 9.3
2017-Nov-17 20:00N 31°59' W 080°45'1 2.9
2017-Nov-17 19:31N 31°59' W 080°47'1 2.7
2017-Nov-17 19:01N 32°00' W 080°48'4 8.2
2017-Nov-17 18:30N 31°58' W 080°44'714.4
2017-Nov-17 18:01N 32°02' W 080°50'3 6.7
2017-Nov-17 17:30N 32°02' W 080°54'611.1
2017-Nov-17 17:00N 32°00' W 080°48'4 8.6
2017-Nov-17 16:30N 31°58' W 080°44'2 3.8
2017-Nov-17 16:00N 31°58' W 080°41'5 9.9
2017-Nov-17 15:30N 31°60' W 080°47'713.1
2017-Nov-17 15:01N 32°02' W 080°54'917.1
2017-Nov-17 14:30N 31°58' W 080°45'5 8.5
2017-Nov-17 13:57N 31°57' W 080°40'817.0
2017-Nov-17 13:31N 32°00' W 080°48'611.3
2017-Nov-17 13:00N 32°02' W 080°54'0 0.0
2017-Nov-17 12:30N 32°02' W 080°54'0 0.0
2017-Nov-17 12:00N 32°02' W 080°54'0 0.0
2017-Nov-17 11:30N 32°02' W 080°54'0 0.0
2017-Nov-17 11:00N 32°02' W 080°54'0 0.0
2017-Nov-17 10:30N 32°02' W 080°54'815.8
2017-Nov-17 10:01N 31°59' W 080°46'3 5.3
2017-Nov-17 09:30N 32°01' W 080°48'5 9.6
2017-Nov-17 09:01N 32°02' W 080°53'1 1.2
2017-Nov-17 08:30N 32°02' W 080°54'0 0.0
2017-Nov-17 08:00N 32°02' W 080°54'0 0.0
2017-Nov-17 07:30N 32°02' W 080°54'1224.4
2017-Nov-17 07:01N 31°57' W 080°41'917.1
2017-Nov-17 06:31N 32°02' W 080°49'4 8.1
2017-Nov-17 06:00N 32°02' W 080°54'0 0.0
2017-Nov-17 05:30N 32°02' W 080°54'0 0.0
2017-Nov-17 05:00N 32°02' W 080°54'917.6
2017-Nov-17 04:31N 31°59' W 080°45'0 0.9
2017-Nov-17 04:00N 31°59' W 080°45'4 9.0
2017-Nov-17 03:31N 31°57' W 080°41'1 0.9
2017-Nov-17 02:54N 31°57' W 080°40'0 0.7
2017-Nov-17 02:30N 31°57' W 080°41'613.0
2017-Nov-17 02:00N 32°00' W 080°47'611.7
2017-Nov-17 01:30N 32°02' W 080°54'714.6
2017-Nov-17 01:00N 31°59' W 080°46'5 9.7
2017-Nov-17 00:31N 32°02' W 080°50'3 6.7
2017-Nov-16 23:59N 32°02' W 080°54'0 0.0
2017-Nov-16 23:30N 32°02' W 080°54'0 0.0
2017-Nov-16 23:01N 32°02' W 080°54'0 0.0
2017-Nov-16 22:30N 32°02' W 080°54'510.4
2017-Nov-16 22:01N 32°01' W 080°48'3 6.9
2017-Nov-16 21:30N 31°59' W 080°45'816.8
2017-Nov-16 21:00N 32°02' W 080°54'4 8.6
2017-Nov-16 20:30N 32°02' W 080°49'714.8
2017-Nov-16 20:00N 31°57' W 080°42'2 4.8
2017-Nov-16 19:30N 31°58' W 080°45'4 7.4
2017-Nov-16 19:00N 31°57' W 080°41'613.1
2017-Nov-16 18:30N 32°00' W 080°47'612.3
2017-Nov-16 18:00N 32°02' W 080°54'0 0.0
2017-Nov-16 17:30N 32°02' W 080°54'0 0.0
2017-Nov-16 17:00N 32°02' W 080°54'1 1.2
2017-Nov-16 16:31N 32°02' W 080°53'1121.0
2017-Nov-16 16:00N 31°57' W 080°42'1122.2
2017-Nov-16 15:30N 32°02' W 080°54'0 0.0
2017-Nov-16 15:00N 32°02' W 080°54'0 0.0
2017-Nov-16 14:30N 32°02' W 080°54'0 0.0
2017-Nov-16 13:59N 32°02' W 080°54'0 0.0
2017-Nov-16 13:30N 32°02' W 080°54'0 0.0
2017-Nov-16 13:00N 32°02' W 080°54'2 3.1
2017-Nov-16 12:30N 32°02' W 080°52'815.9
2017-Nov-16 12:01N 31°58' W 080°44'611.7
2017-Nov-16 11:30N 32°02' W 080°49'4 7.9
2017-Nov-16 11:00N 32°02' W 080°54'510.3
2017-Nov-16 10:30N 32°01' W 080°48'3 5.5
2017-Nov-16 10:00N 31°59' W 080°47'0 1.0
2017-Nov-16 09:30N 31°59' W 080°46'2 3.5
2017-Nov-16 09:00N 31°58' W 080°44'4 7.4
2017-Nov-16 08:30N 32°00' W 080°48'611.7
2017-Nov-16 08:00N 32°02' W 080°54'1326.2
2017-Nov-16 07:30N 31°57' W 080°40'816.7
2017-Nov-16 07:01N 32°01' W 080°48'510.0
2017-Nov-16 06:30N 32°02' W 080°54'0 0.0
2017-Nov-16 06:00N 32°02' W 080°54'0 0.0
2017-Nov-16 05:30N 32°02' W 080°54'0 0.0
2017-Nov-16 05:00N 32°02' W 080°54'0 0.0
2017-Nov-16 04:30N 32°02' W 080°54'0 0.0
2017-Nov-16 04:00N 32°02' W 080°54'0 0.0
2017-Nov-16 03:30N 32°02' W 080°54'0 0.0
2017-Nov-16 03:00N 32°02' W 080°54'1 1.6
2017-Nov-16 02:30N 32°02' W 080°53'816.6
2017-Nov-16 02:00N 31°58' W 080°44'917.9
2017-Nov-16 01:31N 32°02' W 080°54'0 0.4
2017-Nov-16 01:00N 32°02' W 080°54'0 0.0
2017-Nov-16 00:30N 32°02' W 080°54'0 0.0
2017-Nov-16 00:00N 32°02' W 080°54'0 0.0
2017-Nov-15 23:30N 32°02' W 080°54'0 0.0
2017-Nov-15 23:00N 32°02' W 080°54'0 0.0
2017-Nov-15 22:30N 32°02' W 080°54'0 0.0
2017-Nov-15 22:00N 32°02' W 080°54'4 7.8
2017-Nov-15 21:30N 32°02' W 080°50'611.0
2017-Nov-15 21:00N 31°58' W 080°45'0 0.6
2017-Nov-15 20:30N 31°58' W 080°45'4 7.5
2017-Nov-15 19:59N 31°57' W 080°40'613.6
2017-Nov-15 19:30N 31°60' W 080°47'612.7
2017-Nov-15 19:00N 32°02' W 080°54'918.2
2017-Nov-15 18:30N 31°58' W 080°44'2 5.0
2017-Nov-15 18:00N 31°60' W 080°47'713.1
2017-Nov-15 17:30N 32°02' W 080°54'0 0.0
2017-Nov-15 17:00N 32°02' W 080°54'0 0.0
2017-Nov-15 16:30N 32°02' W 080°54'612.8
2017-Nov-15 16:00N 31°60' W 080°47'3 5.3
2017-Nov-15 15:31N 32°02' W 080°49'4 8.7
2017-Nov-15 15:00N 32°02' W 080°54'0 0.0
2017-Nov-15 14:30N 32°02' W 080°54'5 9.4
2017-Nov-15 14:00N 32°01' W 080°49'610.4
2017-Nov-15 13:28N 31°58' W 080°43'1 2.1
2017-Nov-15 13:00N 31°57' W 080°43'5 9.8
2017-Nov-15 12:31N 31°60' W 080°47'612.3
2017-Nov-15 12:00N 32°02' W 080°54'0 0.0
2017-Nov-15 11:30N 32°02' W 080°54'0 0.0
2017-Nov-15 11:00N 32°02' W 080°54'1018.6
2017-Nov-15 10:30N 31°58' W 080°44'0 0.9
2017-Nov-15 10:00N 31°58' W 080°44'1 2.6
2017-Nov-15 09:30N 31°57' W 080°46'4 7.1
2017-Nov-15 08:55N 31°58' W 080°41'3 8.0
2017-Nov-15 08:30N 31°58' W 080°44'612.6
2017-Nov-15 08:00N 32°02' W 080°50'3 6.9
2017-Nov-15 07:30N 32°02' W 080°54'0 0.0
2017-Nov-15 07:00N 32°02' W 080°54'0 0.0
2017-Nov-15 06:30N 32°02' W 080°54'0 0.0
2017-Nov-15 06:00N 32°02' W 080°54'0 0.0
2017-Nov-15 05:30N 32°02' W 080°54'0 0.0
2017-Nov-15 05:00N 32°02' W 080°54'917.6
2017-Nov-15 04:30N 31°58' W 080°44'815.7
2017-Nov-15 04:00N 32°02' W 080°52'1 3.0
2017-Nov-15 03:30N 32°02' W 080°54'0 0.0
2017-Nov-15 03:00N 32°02' W 080°54'0 0.0
2017-Nov-15 02:30N 32°02' W 080°54'0 0.0
2017-Nov-15 02:00N 32°02' W 080°54'0 0.0
2017-Nov-15 01:30N 32°02' W 080°54'0 0.0
2017-Nov-15 01:00N 32°02' W 080°54'0 0.0
2017-Nov-15 00:30N 32°02' W 080°54'0 0.0
2017-Nov-15 00:00N 32°02' W 080°54'0 0.0
2017-Nov-14 23:30N 32°02' W 080°54'2 3.6
2017-Nov-14 23:01N 32°02' W 080°52'611.1
2017-Nov-14 22:30N 31°59' W 080°46'612.1
2017-Nov-14 22:00N 32°02' W 080°53'1 2.5
2017-Nov-14 21:30N 32°02' W 080°54'0 0.0
2017-Nov-14 21:00N 32°02' W 080°54'0 0.0
2017-Nov-14 20:30N 32°02' W 080°54'0 0.0
2017-Nov-14 20:00N 32°02' W 080°54'0 0.0
2017-Nov-14 19:30N 32°02' W 080°54'0 0.0
2017-Nov-14 19:00N 32°02' W 080°54'0 0.0
2017-Nov-14 18:30N 32°02' W 080°54'1325.7
2017-Nov-14 18:00N 31°57' W 080°40'1122.4
2017-Nov-14 17:31N 32°02' W 080°52'2 4.4
2017-Nov-14 17:00N 32°02' W 080°54'0 0.0
2017-Nov-14 16:30N 32°02' W 080°54'0 0.0
2017-Nov-14 16:00N 32°02' W 080°54'1019.7
2017-Nov-14 15:30N 31°58' W 080°44'713.7
2017-Nov-14 15:00N 32°02' W 080°50'4 7.3
2017-Nov-14 14:30N 32°02' W 080°54'0 0.0
2017-Nov-14 14:00N 32°02' W 080°54'0 0.0
2017-Nov-14 13:30N 32°02' W 080°54'0 0.0
2017-Nov-14 13:00N 32°02' W 080°54'0 0.0
2017-Nov-14 12:30N 32°02' W 080°54'0 0.0
2017-Nov-14 12:00N 32°02' W 080°54'1121.5
2017-Nov-14 11:31N 31°58' W 080°43'816.8
2017-Nov-14 11:00N 32°02' W 080°51'510.2
2017-Nov-14 10:29N 31°59' W 080°46'613.0
2017-Nov-14 10:00N 32°02' W 080°52'1018.6
2017-Nov-14 09:28N 31°57' W 080°42'2 4.6
2017-Nov-14 09:00N 31°58' W 080°44'1 0.9
2017-Nov-14 08:19N 31°58' W 080°44'2 6.6
2017-Nov-14 08:00N 31°57' W 080°42'1019.7
2017-Nov-14 07:30N 32°02' W 080°51'3 5.4
2017-Nov-14 07:00N 32°02' W 080°54'4 7.5
2017-Nov-14 06:31N 32°02' W 080°50'713.8
2017-Nov-14 06:00N 31°58' W 080°43'1020.6
2017-Nov-14 05:30N 32°02' W 080°54'0 0.0
2017-Nov-14 05:00N 32°02' W 080°54'0 0.0
2017-Nov-14 04:30N 32°02' W 080°54'0 0.0
2017-Nov-14 04:00N 32°02' W 080°54'0 0.0
2017-Nov-14 03:30N 32°02' W 080°54'0 0.0
2017-Nov-14 03:00N 32°02' W 080°54'0 0.0
2017-Nov-14 02:30N 32°02' W 080°54'0 0.0
2017-Nov-14 02:00N 32°02' W 080°54'0 0.0
2017-Nov-14 01:30N 32°02' W 080°54'0 0.0
2017-Nov-14 01:00N 32°02' W 080°54'0 0.0
2017-Nov-14 00:30N 32°02' W 080°54'0 0.0
2017-Nov-14 00:00N 32°02' W 080°54'0 0.0
2017-Nov-13 23:30N 32°02' W 080°54'713.4
2017-Nov-13 23:00N 31°59' W 080°47'1 2.7
2017-Nov-13 22:30N 32°01' W 080°48'5 9.4
2017-Nov-13 22:00N 32°02' W 080°53'1 0.0
2017-Nov-13 02:00N 32°02' W 080°54'0 0.0
2017-Nov-13 01:30N 32°02' W 080°54'0 0.0
2017-Nov-13 01:00N 32°02' W 080°54'0 0.0
2017-Nov-13 00:30N 32°02' W 080°54'0 0.0
2017-Nov-13 00:00N 32°02' W 080°54'1019.6
2017-Nov-12 23:30N 31°58' W 080°44'714.2
2017-Nov-12 23:00N 32°02' W 080°50'5 9.1
2017-Nov-12 22:30N 31°59' W 080°46'612.7
2017-Nov-12 22:00N 31°57' W 080°40'0 0.4
2017-Nov-12 21:31N 31°57' W 080°40'1 1.6
2017-Nov-12 20:59N 31°57' W 080°40'612.5
2017-Nov-12 20:30N 31°60' W 080°47'713.5
2017-Nov-12 20:00N 32°02' W 080°54'0 0.0
2017-Nov-12 19:31N 32°02' W 080°54'1019.5
2017-Nov-12 19:00N 31°58' W 080°43'4 7.6
2017-Nov-12 18:30N 31°59' W 080°47'0 0.7
2017-Nov-12 18:00N 31°60' W 080°47'0 0.5
2017-Nov-12 17:30N 31°59' W 080°47'5 8.8
2017-Nov-12 16:59N 31°58' W 080°42'2 4.4
2017-Nov-12 16:30N 31°59' W 080°45'918.0
2017-Nov-12 16:00N 32°02' W 080°54'0 0.0
2017-Nov-12 15:30N 32°02' W 080°54'0 0.0
2017-Nov-12 15:00N 32°02' W 080°54'0 0.0
2017-Nov-12 14:30N 32°02' W 080°54'0 0.0
2017-Nov-12 14:00N 32°02' W 080°54'918.1
2017-Nov-12 13:30N 31°58' W 080°44'815.2
2017-Nov-12 13:00N 32°02' W 080°52'2 3.4
2017-Nov-12 12:30N 32°02' W 080°54'0 0.0
2017-Nov-12 12:00N 32°02' W 080°54'0 0.0
2017-Nov-12 11:30N 32°02' W 080°54'0 0.0
2017-Nov-12 11:00N 32°02' W 080°54'0 0.0
2017-Nov-12 10:30N 32°02' W 080°54'0 0.0
2017-Nov-12 10:00N 32°02' W 080°54'0 0.0
2017-Nov-12 09:30N 32°02' W 080°54'0 0.0
2017-Nov-12 09:00N 32°02' W 080°54'0 0.0
2017-Nov-12 08:30N 32°02' W 080°54'0 0.0
2017-Nov-12 08:00N 32°02' W 080°54'0 0.0
2017-Nov-12 07:30N 32°02' W 080°54'1223.8
2017-Nov-12 07:00N 31°58' W 080°41'4 8.9
2017-Nov-12 06:30N 31°59' W 080°46'1 2.3
2017-Nov-12 06:00N 31°59' W 080°45'612.3
2017-Nov-12 05:30N 32°02' W 080°51'1015.3
2017-Nov-12 04:53N 31°57' W 080°41'410.2
2017-Nov-12 04:30N 31°59' W 080°45'713.1
2017-Nov-12 04:00N 32°02' W 080°52'2 4.6
2017-Nov-12 03:31N 32°02' W 080°49'6 8.6
2017-Nov-12 02:51N 31°58' W 080°44'515.4
2017-Nov-12 02:31N 32°01' W 080°49'5 9.0
2017-Nov-12 02:00N 32°02' W 080°54'0 0.0
2017-Nov-12 01:30N 32°02' W 080°54'0 0.0
2017-Nov-12 01:00N 32°02' W 080°54'0 0.0
2017-Nov-12 00:30N 32°02' W 080°54'0 0.0
2017-Nov-12 00:00N 32°02' W 080°54'0 0.0
2017-Nov-11 23:30N 32°02' W 080°54'0 0.0
2017-Nov-11 23:00N 32°02' W 080°54'0 0.0
2017-Nov-11 22:30N 32°02' W 080°54'0 0.0
2017-Nov-11 22:00N 32°02' W 080°54'0 0.0
2017-Nov-11 21:30N 32°02' W 080°54'3 5.5
2017-Nov-11 21:00N 32°02' W 080°51'814.4
2017-Nov-11 20:27N 31°58' W 080°43'613.6
2017-Nov-11 20:01N 32°02' W 080°49'5 8.9
2017-Nov-11 19:30N 32°02' W 080°54'0 0.0
2017-Nov-11 19:00N 32°02' W 080°54'0 0.0
2017-Nov-11 18:30N 32°02' W 080°54'0 0.0
2017-Nov-11 18:00N 32°02' W 080°54'1324.7
2017-Nov-11 17:30N 31°56' W 080°41'510.2
2017-Nov-11 17:00N 31°59' W 080°46'815.0
2017-Nov-11 16:30N 32°02' W 080°54'0 0.0
2017-Nov-11 16:01N 32°02' W 080°54'1325.3
2017-Nov-11 15:30N 31°57' W 080°40'510.3
2017-Nov-11 15:00N 31°59' W 080°46'815.2
2017-Nov-11 14:30N 32°02' W 080°54'0 0.0
2017-Nov-11 14:00N 32°02' W 080°54'0 0.0
2017-Nov-11 13:30N 32°02' W 080°54'0 0.0
2017-Nov-11 13:00N 32°02' W 080°54'611.2
2017-Nov-11 12:29N 32°00' W 080°48'2 5.2
2017-Nov-11 12:00N 31°59' W 080°45'3 6.2
2017-Nov-11 11:28N 31°58' W 080°41'511.0
2017-Nov-11 11:01N 31°60' W 080°47'0 0.9
2017-Nov-11 10:31N 31°59' W 080°47'3 5.3
2017-Nov-11 10:00N 31°59' W 080°44'1 2.4
2017-Nov-11 09:30N 31°59' W 080°45'5 9.3
2017-Nov-11 09:00N 31°57' W 080°40'2 2.2
2017-Nov-11 07:54N 31°57' W 080°43'2 4.5
2017-Nov-11 07:30N 31°57' W 080°41'917.5
2017-Nov-11 07:00N 32°02' W 080°49'4 8.3
2017-Nov-11 06:30N 32°02' W 080°54'4 9.0
2017-Nov-11 06:00N 32°02' W 080°49'510.2
2017-Nov-11 05:30N 31°58' W 080°45'1 2.9
2017-Nov-11 05:00N 31°58' W 080°43'612.5
2017-Nov-11 04:31N 32°01' W 080°49'1 2.3
2017-Nov-11 03:59N 32°00' W 080°48'1 2.1
2017-Nov-11 03:31N 31°60' W 080°47'612.6
2017-Nov-11 03:01N 32°02' W 080°54'0 0.4
2017-Nov-11 02:30N 32°02' W 080°54'611.6
2017-Nov-11 02:00N 32°00' W 080°48'2 4.0
2017-Nov-11 01:30N 31°59' W 080°46'1 2.2
2017-Nov-11 01:00N 31°60' W 080°47'713.4
2017-Nov-11 00:30N 32°02' W 080°54'0 0.0
2017-Nov-11 00:00N 32°02' W 080°54'0 0.0
2017-Nov-10 23:30N 32°02' W 080°54'0 0.0
2017-Nov-10 23:00N 32°02' W 080°54'0 0.0
2017-Nov-10 22:30N 32°02' W 080°54'0 0.0
2017-Nov-10 22:00N 32°02' W 080°54'0 0.0
2017-Nov-10 21:30N 32°02' W 080°54'0 0.0
2017-Nov-10 21:00N 32°02' W 080°54'0 0.0
2017-Nov-10 20:30N 32°02' W 080°54'0 0.0
2017-Nov-10 20:00N 32°02' W 080°54'0 0.0
2017-Nov-10 19:30N 32°02' W 080°54'0 0.0
2017-Nov-10 19:00N 32°02' W 080°54'0 0.0
2017-Nov-10 18:30N 32°02' W 080°54'3 6.2
2017-Nov-10 18:01N 32°02' W 080°51'815.5
2017-Nov-10 17:30N 31°58' W 080°43'0 0.9
2017-Nov-10 17:00N 31°58' W 080°43'1 3.0
2017-Nov-10 16:30N 31°59' W 080°45'2 4.6
2017-Nov-10 16:00N 31°60' W 080°47'2 4.0
2017-Nov-10 15:28N 31°59' W 080°45'3 6.0
2017-Nov-10 15:00N 31°57' W 080°42'917.6
2017-Nov-10 14:31N 32°02' W 080°51'917.7
2017-Nov-10 14:00N 31°58' W 080°42'4 7.0
2017-Nov-10 13:30N 31°58' W 080°46'1 1.2
2017-Nov-10 13:01N 31°58' W 080°45'2 3.6
2017-Nov-10 12:30N 31°60' W 080°47'0 0.8
2017-Nov-10 12:01N 31°59' W 080°47'713.9
2017-Nov-10 11:31N 32°02' W 080°54'0 0.1
2017-Nov-10 11:00N 32°02' W 080°54'0 0.0
2017-Nov-10 10:30N 32°02' W 080°54'0 0.0
2017-Nov-10 10:00N 32°02' W 080°54'0 0.0
2017-Nov-10 09:30N 32°02' W 080°54'0 0.0
2017-Nov-10 09:00N 32°02' W 080°54'0 0.0
2017-Nov-10 08:30N 32°02' W 080°54'1224.4
2017-Nov-10 08:00N 31°57' W 080°41'815.4
2017-Nov-10 07:30N 32°01' W 080°49'5 9.7
2017-Nov-10 07:00N 32°02' W 080°54'0 0.0
2017-Nov-10 06:30N 32°02' W 080°54'0 0.0
2017-Nov-10 06:00N 32°02' W 080°54'0 0.0
2017-Nov-10 05:30N 32°02' W 080°54'0 0.0
2017-Nov-10 05:00N 32°02' W 080°54'0 0.0
2017-Nov-10 04:30N 32°02' W 080°54'1 1.6
2017-Nov-10 04:00N 32°02' W 080°53'816.0
2017-Nov-10 03:30N 31°59' W 080°45'714.5
2017-Nov-10 03:00N 32°02' W 080°52'4 8.8
2017-Nov-10 02:30N 32°00' W 080°48'4 7.4
2017-Nov-10 01:58N 31°58' W 080°43'3 7.7
2017-Nov-10 01:31N 31°60' W 080°47'612.8
2017-Nov-10 01:00N 32°02' W 080°54'611.7
2017-Nov-10 00:30N 32°00' W 080°48'2 4.3
2017-Nov-10 00:00N 31°59' W 080°46'816.1
2017-Nov-09 23:30N 32°02' W 080°54'0 0.0
2017-Nov-09 23:00N 32°02' W 080°54'0 0.0
2017-Nov-09 22:30N 32°02' W 080°54'0 0.0
2017-Nov-09 22:00N 32°02' W 080°54'0 0.0
2017-Nov-09 21:30N 32°02' W 080°54'612.3
2017-Nov-09 21:00N 32°00' W 080°47'3 5.4
2017-Nov-09 20:30N 31°58' W 080°45'4 7.8
2017-Nov-09 20:00N 31°57' W 080°41'2 4.0
2017-Nov-09 19:30N 31°58' W 080°43'1121.4
2017-Nov-09 19:00N 32°02' W 080°54'1320.6
2017-Nov-09 18:22N 31°57' W 080°40'1029.8
2017-Nov-09 18:00N 32°02' W 080°50'3 6.6
2017-Nov-09 17:30N 32°02' W 080°54'0 0.0
2017-Nov-09 17:00N 32°02' W 080°54'0 0.0
2017-Nov-09 16:30N 32°02' W 080°54'0 0.0
2017-Nov-09 16:00N 32°02' W 080°54'0 0.0
2017-Nov-09 15:29N 32°02' W 080°54'0 0.0
2017-Nov-09 15:00N 32°02' W 080°54'0 0.0
2017-Nov-09 14:30N 32°02' W 080°54'0 0.0
2017-Nov-09 14:00N 32°02' W 080°54'0 0.0
2017-Nov-09 13:30N 32°02' W 080°54'0 0.0
2017-Nov-09 13:00N 32°02' W 080°54'0 0.0
2017-Nov-09 12:30N 32°02' W 080°54'0 0.0
2017-Nov-09 12:00N 32°02' W 080°54'0 0.0
2017-Nov-09 11:30N 32°02' W 080°54'0 0.0
2017-Nov-09 11:00N 32°02' W 080°54'0 0.0
2017-Nov-09 10:30N 32°02' W 080°54'0 0.0
2017-Nov-09 10:00N 32°02' W 080°54'4 7.2
2017-Nov-09 09:30N 32°02' W 080°50'612.6
2017-Nov-09 09:00N 31°59' W 080°44'1 1.8
2017-Nov-09 08:30N 31°59' W 080°45'917.3
2017-Nov-09 08:00N 32°02' W 080°54'816.6
2017-Nov-09 07:30N 31°59' W 080°45'3 5.3
2017-Nov-09 07:00N 32°00' W 080°48'1 1.6
2017-Nov-09 06:30N 32°01' W 080°48'510.2
2017-Nov-09 06:00N 32°02' W 080°54'917.2
2017-Nov-09 05:30N 31°59' W 080°45'815.9
2017-Nov-09 05:00N 32°02' W 080°53'1 1.3
2017-Nov-09 04:30N 32°02' W 080°54'0 0.0
2017-Nov-09 04:00N 32°02' W 080°54'0 0.0
2017-Nov-09 03:31N 32°02' W 080°54'0 0.0
2017-Nov-09 03:00N 32°02' W 080°54'0 0.0
2017-Nov-09 02:30N 32°02' W 080°54'0 0.0
2017-Nov-09 02:00N 32°02' W 080°54'0 0.0
2017-Nov-09 01:31N 32°02' W 080°54'0 0.0
2017-Nov-09 01:01N 32°02' W 080°54'0 0.0
2017-Nov-09 00:31N 32°02' W 080°54'9 9.7
2017-Nov-08 23:33N 31°58' W 080°44'119.8
2017-Nov-08 23:30N 31°59' W 080°45'917.1
2017-Nov-08 23:00N 32°02' W 080°54'0 0.0
2017-Nov-08 22:30N 32°02' W 080°54'0 0.0
2017-Nov-08 22:00N 32°02' W 080°54'0 0.0
2017-Nov-08 21:30N 32°02' W 080°54'  
Track history (hours):
 
Tides and Currents Weather Stations Pressure Air Temp Water Temp Dewpoint Dewpoint Depression Visibility Wind Speed Wind Dir Waves Ship Positions

Georgia

Owner: savannah bar pilots, inc., savannah, GA. More information available from US FCC via Universal Licensing System and Coast Guard Vessel Documentation Center.

Last reported at 2017-Nov-18 21:01 UTC. Time now 2017-Nov-18 21:27 UTC.
Position N 32°02' W 080°52'.

Length 19 m; draft 1 m.

Type: Pilot. MMSI: 367586130.

Date/timePositionNaut miles runAvg speedWind from/ knotsBaromVisibWave heightAir tempDewpointWater temp
2017-Nov-18 21:01N 32°02' W 080°52'1121.0
2017-Nov-18 20:30N 31°57' W 080°41'1 1.2
2017-Nov-18 20:00N 31°57' W 080°41'816.2
2017-Nov-18 19:30N 32°01' W 080°49'5 9.6
2017-Nov-18 19:00N 32°02' W 080°54'0 0.0
2017-Nov-18 18:30N 32°02' W 080°54'917.6
2017-Nov-18 18:00N 31°58' W 080°45'2 4.0
2017-Nov-18 17:30N 31°58' W 080°43'2 4.5
2017-Nov-18 17:00N 31°57' W 080°40'1123.2
2017-Nov-18 16:30N 32°02' W 080°52'1223.4
2017-Nov-18 16:01N 31°57' W 080°40'0 0.0
2017-Nov-18 15:30N 31°57' W 080°40'815.6
2017-Nov-18 15:00N 32°00' W 080°48'611.0
2017-Nov-18 14:30N 32°02' W 080°54'2 4.0
2017-Nov-18 14:01N 32°02' W 080°52'611.2
2017-Nov-18 13:31N 31°59' W 080°46'611.7
2017-Nov-18 13:00N 32°02' W 080°52'815.8
2017-Nov-18 12:30N 31°58' W 080°44'815.5
2017-Nov-18 12:00N 32°02' W 080°52'1 2.4
2017-Nov-18 11:31N 32°02' W 080°51'3 6.7
2017-Nov-18 11:00N 32°00' W 080°48'611.7
2017-Nov-18 10:30N 32°02' W 080°54'0 0.1
2017-Nov-18 10:00N 32°02' W 080°54'0 0.0
2017-Nov-18 09:30N 32°02' W 080°54'918.8
2017-Nov-18 09:00N 31°58' W 080°44'2 4.8
2017-Nov-18 08:30N 31°59' W 080°47'1 1.3
2017-Nov-18 08:00N 31°59' W 080°46'510.7
2017-Nov-18 07:30N 31°57' W 080°40'3 3.8
2017-Nov-18 06:48N 31°58' W 080°43'415.0
2017-Nov-18 06:31N 31°60' W 080°48'611.9
2017-Nov-18 06:00N 32°02' W 080°54'0 0.0
2017-Nov-18 05:30N 32°02' W 080°54'0 0.0
2017-Nov-18 05:00N 32°02' W 080°54'1118.4
2017-Nov-18 04:25N 31°58' W 080°43'513.1
2017-Nov-18 04:01N 32°00' W 080°48'611.1
2017-Nov-18 03:31N 32°02' W 080°54'0 0.0
2017-Nov-18 03:00N 32°02' W 080°54'0 0.0
2017-Nov-18 02:31N 32°02' W 080°54'611.9
2017-Nov-18 02:00N 32°00' W 080°47'3 5.3
2017-Nov-18 01:29N 31°59' W 080°45'1 1.8
2017-Nov-18 01:00N 31°58' W 080°46'0 0.7
2017-Nov-18 00:30N 31°58' W 080°46'3 5.3
2017-Nov-17 23:52N 31°58' W 080°42'2 5.0
2017-Nov-17 23:29N 31°58' W 080°44'1020.1
2017-Nov-17 23:00N 32°02' W 080°54'0 0.0
2017-Nov-17 22:30N 32°02' W 080°54'0 0.0
2017-Nov-17 22:01N 32°02' W 080°54'2 4.2
2017-Nov-17 21:31N 32°02' W 080°52'914.7
2017-Nov-17 20:54N 31°58' W 080°43'717.9
2017-Nov-17 20:31N 32°02' W 080°49'5 9.3
2017-Nov-17 20:00N 31°59' W 080°45'1 2.9
2017-Nov-17 19:31N 31°59' W 080°47'1 2.7
2017-Nov-17 19:01N 32°00' W 080°48'4 8.2
2017-Nov-17 18:30N 31°58' W 080°44'714.4
2017-Nov-17 18:01N 32°02' W 080°50'3 6.7
2017-Nov-17 17:30N 32°02' W 080°54'611.1
2017-Nov-17 17:00N 32°00' W 080°48'4 8.6
2017-Nov-17 16:30N 31°58' W 080°44'2 3.8
2017-Nov-17 16:00N 31°58' W 080°41'5 9.9
2017-Nov-17 15:30N 31°60' W 080°47'713.1
2017-Nov-17 15:01N 32°02' W 080°54'917.1
2017-Nov-17 14:30N 31°58' W 080°45'5 8.5
2017-Nov-17 13:57N 31°57' W 080°40'817.0
2017-Nov-17 13:31N 32°00' W 080°48'611.3
2017-Nov-17 13:00N 32°02' W 080°54'0 0.0
2017-Nov-17 12:30N 32°02' W 080°54'0 0.0
2017-Nov-17 12:00N 32°02' W 080°54'0 0.0
2017-Nov-17 11:30N 32°02' W 080°54'0 0.0
2017-Nov-17 11:00N 32°02' W 080°54'0 0.0
2017-Nov-17 10:30N 32°02' W 080°54'815.8
2017-Nov-17 10:01N 31°59' W 080°46'3 5.3
2017-Nov-17 09:30N 32°01' W 080°48'5 9.6
2017-Nov-17 09:01N 32°02' W 080°53'1 1.2
2017-Nov-17 08:30N 32°02' W 080°54'0 0.0
2017-Nov-17 08:00N 32°02' W 080°54'0 0.0
2017-Nov-17 07:30N 32°02' W 080°54'1224.4
2017-Nov-17 07:01N 31°57' W 080°41'917.1
2017-Nov-17 06:31N 32°02' W 080°49'4 8.1
2017-Nov-17 06:00N 32°02' W 080°54'0 0.0
2017-Nov-17 05:30N 32°02' W 080°54'0 0.0
2017-Nov-17 05:00N 32°02' W 080°54'917.6
2017-Nov-17 04:31N 31°59' W 080°45'0 0.9
2017-Nov-17 04:00N 31°59' W 080°45'4 9.0
2017-Nov-17 03:31N 31°57' W 080°41'1 0.9
2017-Nov-17 02:54N 31°57' W 080°40'0 0.7
2017-Nov-17 02:30N 31°57' W 080°41'613.0
2017-Nov-17 02:00N 32°00' W 080°47'611.7
2017-Nov-17 01:30N 32°02' W 080°54'714.6
2017-Nov-17 01:00N 31°59' W 080°46'5 9.7
2017-Nov-17 00:31N 32°02' W 080°50'3 6.7
2017-Nov-16 23:59N 32°02' W 080°54'0 0.0
2017-Nov-16 23:30N 32°02' W 080°54'0 0.0
2017-Nov-16 23:01N 32°02' W 080°54'0 0.0
2017-Nov-16 22:30N 32°02' W 080°54'510.4
2017-Nov-16 22:01N 32°01' W 080°48'3 6.9
2017-Nov-16 21:30N 31°59' W 080°45'816.8
2017-Nov-16 21:00N 32°02' W 080°54'4 8.6
2017-Nov-16 20:30N 32°02' W 080°49'714.8
2017-Nov-16 20:00N 31°57' W 080°42'2 4.8
2017-Nov-16 19:30N 31°58' W 080°45'4 7.4
2017-Nov-16 19:00N 31°57' W 080°41'613.1
2017-Nov-16 18:30N 32°00' W 080°47'612.3
2017-Nov-16 18:00N 32°02' W 080°54'0 0.0
2017-Nov-16 17:30N 32°02' W 080°54'0 0.0
2017-Nov-16 17:00N 32°02' W 080°54'1 1.2
2017-Nov-16 16:31N 32°02' W 080°53'1121.0
2017-Nov-16 16:00N 31°57' W 080°42'1122.2
2017-Nov-16 15:30N 32°02' W 080°54'0 0.0
2017-Nov-16 15:00N 32°02' W 080°54'0 0.0
2017-Nov-16 14:30N 32°02' W 080°54'0 0.0
2017-Nov-16 13:59N 32°02' W 080°54'0 0.0
2017-Nov-16 13:30N 32°02' W 080°54'0 0.0
2017-Nov-16 13:00N 32°02' W 080°54'2 3.1
2017-Nov-16 12:30N 32°02' W 080°52'815.9
2017-Nov-16 12:01N 31°58' W 080°44'611.7
2017-Nov-16 11:30N 32°02' W 080°49'4 7.9
2017-Nov-16 11:00N 32°02' W 080°54'510.3
2017-Nov-16 10:30N 32°01' W 080°48'3 5.5
2017-Nov-16 10:00N 31°59' W 080°47'0 1.0
2017-Nov-16 09:30N 31°59' W 080°46'2 3.5
2017-Nov-16 09:00N 31°58' W 080°44'4 7.4
2017-Nov-16 08:30N 32°00' W 080°48'611.7
2017-Nov-16 08:00N 32°02' W 080°54'1326.2
2017-Nov-16 07:30N 31°57' W 080°40'816.7
2017-Nov-16 07:01N 32°01' W 080°48'510.0
2017-Nov-16 06:30N 32°02' W 080°54'0 0.0
2017-Nov-16 06:00N 32°02' W 080°54'0 0.0
2017-Nov-16 05:30N 32°02' W 080°54'0 0.0
2017-Nov-16 05:00N 32°02' W 080°54'0 0.0
2017-Nov-16 04:30N 32°02' W 080°54'0 0.0
2017-Nov-16 04:00N 32°02' W 080°54'0 0.0
2017-Nov-16 03:30N 32°02' W 080°54'0 0.0
2017-Nov-16 03:00N 32°02' W 080°54'1 1.6
2017-Nov-16 02:30N 32°02' W 080°53'816.6
2017-Nov-16 02:00N 31°58' W 080°44'917.9
2017-Nov-16 01:31N 32°02' W 080°54'0 0.4
2017-Nov-16 01:00N 32°02' W 080°54'0 0.0
2017-Nov-16 00:30N 32°02' W 080°54'0 0.0
2017-Nov-16 00:00N 32°02' W 080°54'0 0.0
2017-Nov-15 23:30N 32°02' W 080°54'0 0.0
2017-Nov-15 23:00N 32°02' W 080°54'0 0.0
2017-Nov-15 22:30N 32°02' W 080°54'0 0.0
2017-Nov-15 22:00N 32°02' W 080°54'4 7.8
2017-Nov-15 21:30N 32°02' W 080°50'611.0
2017-Nov-15 21:00N 31°58' W 080°45'0 0.6
2017-Nov-15 20:30N 31°58' W 080°45'4 7.5
2017-Nov-15 19:59N 31°57' W 080°40'613.6
2017-Nov-15 19:30N 31°60' W 080°47'612.7
2017-Nov-15 19:00N 32°02' W 080°54'918.2
2017-Nov-15 18:30N 31°58' W 080°44'2 5.0
2017-Nov-15 18:00N 31°60' W 080°47'713.1
2017-Nov-15 17:30N 32°02' W 080°54'0 0.0
2017-Nov-15 17:00N 32°02' W 080°54'0 0.0
2017-Nov-15 16:30N 32°02' W 080°54'612.8
2017-Nov-15 16:00N 31°60' W 080°47'3 5.3
2017-Nov-15 15:31N 32°02' W 080°49'4 8.7
2017-Nov-15 15:00N 32°02' W 080°54'0 0.0
2017-Nov-15 14:30N 32°02' W 080°54'5 9.4
2017-Nov-15 14:00N 32°01' W 080°49'610.4
2017-Nov-15 13:28N 31°58' W 080°43'1 2.1
2017-Nov-15 13:00N 31°57' W 080°43'5 9.8
2017-Nov-15 12:31N 31°60' W 080°47'612.3
2017-Nov-15 12:00N 32°02' W 080°54'0 0.0
2017-Nov-15 11:30N 32°02' W 080°54'0 0.0
2017-Nov-15 11:00N 32°02' W 080°54'1018.6
2017-Nov-15 10:30N 31°58' W 080°44'0 0.9
2017-Nov-15 10:00N 31°58' W 080°44'1 2.6
2017-Nov-15 09:30N 31°57' W 080°46'4 7.1
2017-Nov-15 08:55N 31°58' W 080°41'3 8.0
2017-Nov-15 08:30N 31°58' W 080°44'612.6
2017-Nov-15 08:00N 32°02' W 080°50'3 6.9
2017-Nov-15 07:30N 32°02' W 080°54'0 0.0
2017-Nov-15 07:00N 32°02' W 080°54'0 0.0
2017-Nov-15 06:30N 32°02' W 080°54'0 0.0
2017-Nov-15 06:00N 32°02' W 080°54'0 0.0
2017-Nov-15 05:30N 32°02' W 080°54'0 0.0
2017-Nov-15 05:00N 32°02' W 080°54'917.6
2017-Nov-15 04:30N 31°58' W 080°44'815.7
2017-Nov-15 04:00N 32°02' W 080°52'1 3.0
2017-Nov-15 03:30N 32°02' W 080°54'0 0.0
2017-Nov-15 03:00N 32°02' W 080°54'0 0.0
2017-Nov-15 02:30N 32°02' W 080°54'0 0.0
2017-Nov-15 02:00N 32°02' W 080°54'0 0.0
2017-Nov-15 01:30N 32°02' W 080°54'0 0.0
2017-Nov-15 01:00N 32°02' W 080°54'0 0.0
2017-Nov-15 00:30N 32°02' W 080°54'0 0.0
2017-Nov-15 00:00N 32°02' W 080°54'0 0.0
2017-Nov-14 23:30N 32°02' W 080°54'2 3.6
2017-Nov-14 23:01N 32°02' W 080°52'611.1
2017-Nov-14 22:30N 31°59' W 080°46'612.1
2017-Nov-14 22:00N 32°02' W 080°53'1 2.5
2017-Nov-14 21:30N 32°02' W 080°54'0 0.0
2017-Nov-14 21:00N 32°02' W 080°54'0 0.0
2017-Nov-14 20:30N 32°02' W 080°54'0 0.0
2017-Nov-14 20:00N 32°02' W 080°54'0 0.0
2017-Nov-14 19:30N 32°02' W 080°54'0 0.0
2017-Nov-14 19:00N 32°02' W 080°54'0 0.0
2017-Nov-14 18:30N 32°02' W 080°54'1325.7
2017-Nov-14 18:00N 31°57' W 080°40'1122.4
2017-Nov-14 17:31N 32°02' W 080°52'2 4.4
2017-Nov-14 17:00N 32°02' W 080°54'0 0.0
2017-Nov-14 16:30N 32°02' W 080°54'0 0.0
2017-Nov-14 16:00N 32°02' W 080°54'1019.7
2017-Nov-14 15:30N 31°58' W 080°44'713.7
2017-Nov-14 15:00N 32°02' W 080°50'4 7.3
2017-Nov-14 14:30N 32°02' W 080°54'0 0.0
2017-Nov-14 14:00N 32°02' W 080°54'0 0.0
2017-Nov-14 13:30N 32°02' W 080°54'0 0.0
2017-Nov-14 13:00N 32°02' W 080°54'0 0.0
2017-Nov-14 12:30N 32°02' W 080°54'0 0.0
2017-Nov-14 12:00N 32°02' W 080°54'1121.5
2017-Nov-14 11:31N 31°58' W 080°43'816.8
2017-Nov-14 11:00N 32°02' W 080°51'510.2
2017-Nov-14 10:29N 31°59' W 080°46'613.0
2017-Nov-14 10:00N 32°02' W 080°52'1018.6
2017-Nov-14 09:28N 31°57' W 080°42'2 4.6
2017-Nov-14 09:00N 31°58' W 080°44'1 0.9
2017-Nov-14 08:19N 31°58' W 080°44'2 6.6
2017-Nov-14 08:00N 31°57' W 080°42'1019.7
2017-Nov-14 07:30N 32°02' W 080°51'3 5.4
2017-Nov-14 07:00N 32°02' W 080°54'4 7.5
2017-Nov-14 06:31N 32°02' W 080°50'713.8
2017-Nov-14 06:00N 31°58' W 080°43'1020.6
2017-Nov-14 05:30N 32°02' W 080°54'0 0.0
2017-Nov-14 05:00N 32°02' W 080°54'0 0.0
2017-Nov-14 04:30N 32°02' W 080°54'0 0.0
2017-Nov-14 04:00N 32°02' W 080°54'0 0.0
2017-Nov-14 03:30N 32°02' W 080°54'0 0.0
2017-Nov-14 03:00N 32°02' W 080°54'0 0.0
2017-Nov-14 02:30N 32°02' W 080°54'0 0.0
2017-Nov-14 02:00N 32°02' W 080°54'0 0.0
2017-Nov-14 01:30N 32°02' W 080°54'0 0.0
2017-Nov-14 01:00N 32°02' W 080°54'0 0.0
2017-Nov-14 00:30N 32°02' W 080°54'0 0.0
2017-Nov-14 00:00N 32°02' W 080°54'0 0.0
2017-Nov-13 23:30N 32°02' W 080°54'713.4
2017-Nov-13 23:00N 31°59' W 080°47'1 2.7
2017-Nov-13 22:30N 32°01' W 080°48'5 9.4
2017-Nov-13 22:00N 32°02' W 080°53'1 0.0
2017-Nov-13 02:00N 32°02' W 080°54'0 0.0
2017-Nov-13 01:30N 32°02' W 080°54'0 0.0
2017-Nov-13 01:00N 32°02' W 080°54'0 0.0
2017-Nov-13 00:30N 32°02' W 080°54'0 0.0
2017-Nov-13 00:00N 32°02' W 080°54'1019.6
2017-Nov-12 23:30N 31°58' W 080°44'714.2
2017-Nov-12 23:00N 32°02' W 080°50'5 9.1
2017-Nov-12 22:30N 31°59' W 080°46'612.7
2017-Nov-12 22:00N 31°57' W 080°40'0 0.4
2017-Nov-12 21:31N 31°57' W 080°40'1 1.6
2017-Nov-12 20:59N 31°57' W 080°40'612.5
2017-Nov-12 20:30N 31°60' W 080°47'713.5
2017-Nov-12 20:00N 32°02' W 080°54'0 0.0
2017-Nov-12 19:31N 32°02' W 080°54'1019.5
2017-Nov-12 19:00N 31°58' W 080°43'4 7.6
2017-Nov-12 18:30N 31°59' W 080°47'0 0.7
2017-Nov-12 18:00N 31°60' W 080°47'0 0.5
2017-Nov-12 17:30N 31°59' W 080°47'5 8.8
2017-Nov-12 16:59N 31°58' W 080°42'2 4.4
2017-Nov-12 16:30N 31°59' W 080°45'918.0
2017-Nov-12 16:00N 32°02' W 080°54'0 0.0
2017-Nov-12 15:30N 32°02' W 080°54'0 0.0
2017-Nov-12 15:00N 32°02' W 080°54'0 0.0
2017-Nov-12 14:30N 32°02' W 080°54'0 0.0
2017-Nov-12 14:00N 32°02' W 080°54'918.1
2017-Nov-12 13:30N 31°58' W 080°44'815.2
2017-Nov-12 13:00N 32°02' W 080°52'2 3.4
2017-Nov-12 12:30N 32°02' W 080°54'0 0.0
2017-Nov-12 12:00N 32°02' W 080°54'0 0.0
2017-Nov-12 11:30N 32°02' W 080°54'0 0.0
2017-Nov-12 11:00N 32°02' W 080°54'0 0.0
2017-Nov-12 10:30N 32°02' W 080°54'0 0.0
2017-Nov-12 10:00N 32°02' W 080°54'0 0.0
2017-Nov-12 09:30N 32°02' W 080°54'0 0.0
2017-Nov-12 09:00N 32°02' W 080°54'0 0.0
2017-Nov-12 08:30N 32°02' W 080°54'0 0.0
2017-Nov-12 08:00N 32°02' W 080°54'0 0.0
2017-Nov-12 07:30N 32°02' W 080°54'1223.8
2017-Nov-12 07:00N 31°58' W 080°41'4 8.9
2017-Nov-12 06:30N 31°59' W 080°46'1 2.3
2017-Nov-12 06:00N 31°59' W 080°45'612.3
2017-Nov-12 05:30N 32°02' W 080°51'1015.3
2017-Nov-12 04:53N 31°57' W 080°41'410.2
2017-Nov-12 04:30N 31°59' W 080°45'713.1
2017-Nov-12 04:00N 32°02' W 080°52'2 4.6
2017-Nov-12 03:31N 32°02' W 080°49'6 8.6
2017-Nov-12 02:51N 31°58' W 080°44'515.4
2017-Nov-12 02:31N 32°01' W 080°49'5 9.0
2017-Nov-12 02:00N 32°02' W 080°54'0 0.0
2017-Nov-12 01:30N 32°02' W 080°54'0 0.0
2017-Nov-12 01:00N 32°02' W 080°54'0 0.0
2017-Nov-12 00:30N 32°02' W 080°54'0 0.0
2017-Nov-12 00:00N 32°02' W 080°54'0 0.0
2017-Nov-11 23:30N 32°02' W 080°54'0 0.0
2017-Nov-11 23:00N 32°02' W 080°54'0 0.0
2017-Nov-11 22:30N 32°02' W 080°54'0 0.0
2017-Nov-11 22:00N 32°02' W 080°54'0 0.0
2017-Nov-11 21:30N 32°02' W 080°54'3 5.5
2017-Nov-11 21:00N 32°02' W 080°51'814.4
2017-Nov-11 20:27N 31°58' W 080°43'613.6
2017-Nov-11 20:01N 32°02' W 080°49'5 8.9
2017-Nov-11 19:30N 32°02' W 080°54'0 0.0
2017-Nov-11 19:00N 32°02' W 080°54'0 0.0
2017-Nov-11 18:30N 32°02' W 080°54'0 0.0
2017-Nov-11 18:00N 32°02' W 080°54'1324.7
2017-Nov-11 17:30N 31°56' W 080°41'510.2
2017-Nov-11 17:00N 31°59' W 080°46'815.0
2017-Nov-11 16:30N 32°02' W 080°54'0 0.0
2017-Nov-11 16:01N 32°02' W 080°54'1325.3
2017-Nov-11 15:30N 31°57' W 080°40'510.3
2017-Nov-11 15:00N 31°59' W 080°46'815.2
2017-Nov-11 14:30N 32°02' W 080°54'0 0.0
2017-Nov-11 14:00N 32°02' W 080°54'0 0.0
2017-Nov-11 13:30N 32°02' W 080°54'0 0.0
2017-Nov-11 13:00N 32°02' W 080°54'611.2
2017-Nov-11 12:29N 32°00' W 080°48'2 5.2
2017-Nov-11 12:00N 31°59' W 080°45'3 6.2
2017-Nov-11 11:28N 31°58' W 080°41'511.0
2017-Nov-11 11:01N 31°60' W 080°47'0 0.9
2017-Nov-11 10:31N 31°59' W 080°47'3 5.3
2017-Nov-11 10:00N 31°59' W 080°44'1 2.4
2017-Nov-11 09:30N 31°59' W 080°45'5 9.3
2017-Nov-11 09:00N 31°57' W 080°40'2 2.2
2017-Nov-11 07:54N 31°57' W 080°43'2 4.5
2017-Nov-11 07:30N 31°57' W 080°41'917.5
2017-Nov-11 07:00N 32°02' W 080°49'4 8.3
2017-Nov-11 06:30N 32°02' W 080°54'4 9.0
2017-Nov-11 06:00N 32°02' W 080°49'510.2
2017-Nov-11 05:30N 31°58' W 080°45'1 2.9
2017-Nov-11 05:00N 31°58' W 080°43'612.5
2017-Nov-11 04:31N 32°01' W 080°49'1 2.3
2017-Nov-11 03:59N 32°00' W 080°48'1 2.1
2017-Nov-11 03:31N 31°60' W 080°47'612.6
2017-Nov-11 03:01N 32°02' W 080°54'0 0.4
2017-Nov-11 02:30N 32°02' W 080°54'611.6
2017-Nov-11 02:00N 32°00' W 080°48'2 4.0
2017-Nov-11 01:30N 31°59' W 080°46'1 2.2
2017-Nov-11 01:00N 31°60' W 080°47'713.4
2017-Nov-11 00:30N 32°02' W 080°54'0 0.0
2017-Nov-11 00:00N 32°02' W 080°54'0 0.0
2017-Nov-10 23:30N 32°02' W 080°54'0 0.0
2017-Nov-10 23:00N 32°02' W 080°54'0 0.0
2017-Nov-10 22:30N 32°02' W 080°54'0 0.0
2017-Nov-10 22:00N 32°02' W 080°54'0 0.0
2017-Nov-10 21:30N 32°02' W 080°54'0 0.0
2017-Nov-10 21:00N 32°02' W 080°54'0 0.0
2017-Nov-10 20:30N 32°02' W 080°54'0 0.0
2017-Nov-10 20:00N 32°02' W 080°54'0 0.0
2017-Nov-10 19:30N 32°02' W 080°54'0 0.0
2017-Nov-10 19:00N 32°02' W 080°54'0 0.0
2017-Nov-10 18:30N 32°02' W 080°54'3 6.2
2017-Nov-10 18:01N 32°02' W 080°51'815.5
2017-Nov-10 17:30N 31°58' W 080°43'0 0.9
2017-Nov-10 17:00N 31°58' W 080°43'1 3.0
2017-Nov-10 16:30N 31°59' W 080°45'2 4.6
2017-Nov-10 16:00N 31°60' W 080°47'2 4.0
2017-Nov-10 15:28N 31°59' W 080°45'3 6.0
2017-Nov-10 15:00N 31°57' W 080°42'917.6
2017-Nov-10 14:31N 32°02' W 080°51'917.7
2017-Nov-10 14:00N 31°58' W 080°42'4 7.0
2017-Nov-10 13:30N 31°58' W 080°46'1 1.2
2017-Nov-10 13:01N 31°58' W 080°45'2 3.6
2017-Nov-10 12:30N 31°60' W 080°47'0 0.8
2017-Nov-10 12:01N 31°59' W 080°47'713.9
2017-Nov-10 11:31N 32°02' W 080°54'0 0.1
2017-Nov-10 11:00N 32°02' W 080°54'0 0.0
2017-Nov-10 10:30N 32°02' W 080°54'0 0.0
2017-Nov-10 10:00N 32°02' W 080°54'0 0.0
2017-Nov-10 09:30N 32°02' W 080°54'0 0.0
2017-Nov-10 09:00N 32°02' W 080°54'0 0.0
2017-Nov-10 08:30N 32°02' W 080°54'1224.4
2017-Nov-10 08:00N 31°57' W 080°41'815.4
2017-Nov-10 07:30N 32°01' W 080°49'5 9.7
2017-Nov-10 07:00N 32°02' W 080°54'0 0.0
2017-Nov-10 06:30N 32°02' W 080°54'0 0.0
2017-Nov-10 06:00N 32°02' W 080°54'0 0.0
2017-Nov-10 05:30N 32°02' W 080°54'0 0.0
2017-Nov-10 05:00N 32°02' W 080°54'0 0.0
2017-Nov-10 04:30N 32°02' W 080°54'1 1.6
2017-Nov-10 04:00N 32°02' W 080°53'816.0
2017-Nov-10 03:30N 31°59' W 080°45'714.5
2017-Nov-10 03:00N 32°02' W 080°52'4 8.8
2017-Nov-10 02:30N 32°00' W 080°48'4 7.4
2017-Nov-10 01:58N 31°58' W 080°43'3 7.7
2017-Nov-10 01:31N 31°60' W 080°47'612.8
2017-Nov-10 01:00N 32°02' W 080°54'611.7
2017-Nov-10 00:30N 32°00' W 080°48'2 4.3
2017-Nov-10 00:00N 31°59' W 080°46'816.1
2017-Nov-09 23:30N 32°02' W 080°54'0 0.0
2017-Nov-09 23:00N 32°02' W 080°54'0 0.0
2017-Nov-09 22:30N 32°02' W 080°54'0 0.0
2017-Nov-09 22:00N 32°02' W 080°54'0 0.0
2017-Nov-09 21:30N 32°02' W 080°54'612.3
2017-Nov-09 21:00N 32°00' W 080°47'3 5.4
2017-Nov-09 20:30N 31°58' W 080°45'4 7.8
2017-Nov-09 20:00N 31°57' W 080°41'2 4.0
2017-Nov-09 19:30N 31°58' W 080°43'1121.4
2017-Nov-09 19:00N 32°02' W 080°54'1320.6
2017-Nov-09 18:22N 31°57' W 080°40'1029.8
2017-Nov-09 18:00N 32°02' W 080°50'3 6.6
2017-Nov-09 17:30N 32°02' W 080°54'0 0.0
2017-Nov-09 17:00N 32°02' W 080°54'0 0.0
2017-Nov-09 16:30N 32°02' W 080°54'0 0.0
2017-Nov-09 16:00N 32°02' W 080°54'0 0.0
2017-Nov-09 15:29N 32°02' W 080°54'0 0.0
2017-Nov-09 15:00N 32°02' W 080°54'0 0.0
2017-Nov-09 14:30N 32°02' W 080°54'0 0.0
2017-Nov-09 14:00N 32°02' W 080°54'0 0.0
2017-Nov-09 13:30N 32°02' W 080°54'0 0.0
2017-Nov-09 13:00N 32°02' W 080°54'0 0.0
2017-Nov-09 12:30N 32°02' W 080°54'0 0.0
2017-Nov-09 12:00N 32°02' W 080°54'0 0.0
2017-Nov-09 11:30N 32°02' W 080°54'0 0.0
2017-Nov-09 11:00N 32°02' W 080°54'0 0.0
2017-Nov-09 10:30N 32°02' W 080°54'0 0.0
2017-Nov-09 10:00N 32°02' W 080°54'4 7.2
2017-Nov-09 09:30N 32°02' W 080°50'612.6
2017-Nov-09 09:00N 31°59' W 080°44'1 1.8
2017-Nov-09 08:30N 31°59' W 080°45'917.3
2017-Nov-09 08:00N 32°02' W 080°54'816.6
2017-Nov-09 07:30N 31°59' W 080°45'3 5.3
2017-Nov-09 07:00N 32°00' W 080°48'1 1.6
2017-Nov-09 06:30N 32°01' W 080°48'510.2
2017-Nov-09 06:00N 32°02' W 080°54'917.2
2017-Nov-09 05:30N 31°59' W 080°45'815.9
2017-Nov-09 05:00N 32°02' W 080°53'1 1.3
2017-Nov-09 04:30N 32°02' W 080°54'0 0.0
2017-Nov-09 04:00N 32°02' W 080°54'0 0.0
2017-Nov-09 03:31N 32°02' W 080°54'0 0.0
2017-Nov-09 03:00N 32°02' W 080°54'0 0.0
2017-Nov-09 02:30N 32°02' W 080°54'0 0.0
2017-Nov-09 02:00N 32°02' W 080°54'0 0.0
2017-Nov-09 01:31N 32°02' W 080°54'0 0.0
2017-Nov-09 01:01N 32°02' W 080°54'0 0.0
2017-Nov-09 00:31N 32°02' W 080°54'9 9.7
2017-Nov-08 23:33N 31°58' W 080°44'119.8
2017-Nov-08 23:30N 31°59' W 080°45'917.1
2017-Nov-08 23:00N 32°02' W 080°54'0 0.0
2017-Nov-08 22:30N 32°02' W 080°54'0 0.0
2017-Nov-08 22:00N 32°02' W 080°54'0 0.0
2017-Nov-08 21:30N 32°02' W 080°54'  

Dump ship's entire track history